Time;durP1;ratioP1;P1;durP2;ratioP2;P2;SDS_P1;SDS_P2;PMS_P1;PMS_P2;Temp;Humidity;BMP_temperature;BMP_pressure;BME280_temperature;BME280_humidity;BME280_pressure;Samples;Min_cycle;Max_cycle;Signal;HPM_P1;HPM_P2
2023/04/28 00:04:46;;;;;;;9.13;2.67;;;14.00;74.30;;;;;;10514567;28;20222;-70
2023/04/28 00:09:46;;;;;;;5.23;2.30;;;14.00;75.20;;;;;;10514206;28;20230;-69
2023/04/28 00:14:47;;;;;;;6.33;2.77;;;13.90;77.10;;;;;;10510956;28;20252;-70
2023/04/28 00:19:48;;;;;;;6.70;2.60;;;13.90;77.90;;;;;;10518187;28;20231;-71
2023/04/28 00:24:52;;;;;;;6.53;2.67;;;13.80;78.20;;;;;;10522596;28;20229;-70
2023/04/28 00:29:53;;;;;;;4.70;2.50;;;13.70;78.20;;;;;;10511105;28;20291;-70
2023/04/28 00:34:53;;;;;;;4.97;2.43;;;13.70;78.80;;;;;;10511109;28;20248;-70
2023/04/28 00:39:55;;;;;;;3.90;2.43;;;13.70;79.50;;;;;;10512639;28;20215;-72
2023/04/28 00:44:56;;;;;;;7.97;3.90;;;13.70;80.60;;;;;;10524405;28;20560;-71
2023/04/28 00:49:58;;;;;;;7.77;3.67;;;13.60;81.20;;;;;;10511274;28;20229;-70
2023/04/28 00:54:58;;;;;;;5.63;2.80;;;13.50;82.20;;;;;;10526853;28;20249;-71
2023/04/28 01:00:04;;;;;;;5.97;2.83;;;13.40;84.60;;;;;;10509849;28;20329;-74
2023/04/28 01:05:05;;;;;;;3.53;2.50;;;13.40;86.10;;;;;;10506385;28;20215;-71
2023/04/28 01:10:06;;;;;;;4.33;2.50;;;13.30;86.40;;;;;;10532253;28;20288;-72
2023/04/28 01:15:14;;;;;;;3.87;2.73;;;13.20;87.20;;;;;;10531087;28;20187;-72
2023/04/28 01:20:15;;;;;;;4.77;2.87;;;13.20;87.70;;;;;;10499063;28;20210;-71
2023/04/28 01:25:16;;;;;;;5.73;3.00;;;13.30;88.40;;;;;;10507809;28;20198;-70
2023/04/28 01:30:16;;;;;;;4.53;3.17;;;13.40;87.80;;;;;;10518781;28;20199;-71
2023/04/28 01:35:17;;;;;;;4.60;3.00;;;13.40;89.00;;;;;;10510869;28;20193;-71
2023/04/28 01:40:18;;;;;;;4.77;3.00;;;13.50;89.60;;;;;;10515144;28;20206;-70
2023/04/28 01:45:18;;;;;;;5.77;3.30;;;13.50;90.30;;;;;;10515663;28;20213;-69
2023/04/28 01:50:19;;;;;;;6.03;3.20;;;13.50;90.70;;;;;;10526571;28;20193;-71
2023/04/28 01:55:20;;;;;;;4.60;2.87;;;13.50;91.60;;;;;;10515213;28;20247;-69
2023/04/28 02:00:20;;;;;;;5.53;2.93;;;13.40;92.00;;;;;;10527897;28;20206;-70
2023/04/28 02:05:21;;;;;;;4.33;2.87;;;13.40;93.40;;;;;;10521891;28;20660;-70
2023/04/28 02:10:22;;;;;;;7.07;2.93;;;13.40;94.70;;;;;;10508216;28;20195;-73
2023/04/28 02:15:24;;;;;;;3.10;2.80;;;13.40;95.60;;;;;;10494608;28;20199;-73
2023/04/28 02:20:26;;;;;;;4.67;2.77;;;13.40;96.30;;;;;;10521224;28;20733;-73
2023/04/28 02:25:26;;;;;;;6.67;3.23;;;13.40;97.70;;;;;;10516449;28;20210;-72
2023/04/28 02:30:27;;;;;;;4.30;3.50;;;13.30;99.90;;;;;;10515281;28;20241;-72
2023/04/28 02:35:28;;;;;;;3.60;3.30;;;13.30;99.90;;;;;;10512077;28;20227;-71
2023/04/28 02:40:28;;;;;;;5.17;3.20;;;13.20;99.90;;;;;;10519789;28;20234;-71
2023/04/28 02:45:30;;;;;;;4.23;3.10;;;13.20;99.90;;;;;;10522838;28;20221;-72
2023/04/28 02:50:30;;;;;;;5.20;3.53;;;13.20;99.90;;;;;;10521944;28;20226;-71
2023/04/28 02:55:31;;;;;;;4.73;3.50;;;13.30;99.90;;;;;;10514404;28;20227;-70
2023/04/28 03:00:31;;;;;;;5.47;3.23;;;13.30;99.90;;;;;;10519403;28;20250;-70
2023/04/28 03:05:32;;;;;;;3.73;3.37;;;13.30;99.90;;;;;;10514335;28;20226;-70
2023/04/28 03:10:32;;;;;;;5.30;3.30;;;13.30;99.90;;;;;;10493688;28;20231;-70
2023/04/28 03:15:33;;;;;;;5.83;4.00;;;13.30;99.90;;;;;;10501942;28;20646;-69
2023/04/28 03:20:34;;;;;;;6.20;3.83;;;13.30;99.90;;;;;;10513074;28;20292;-71
2023/04/28 03:25:34;;;;;;;5.03;3.67;;;13.20;99.90;;;;;;10518993;28;20230;-71
2023/04/28 03:30:35;;;;;;;5.27;3.80;;;13.10;99.90;;;;;;10494823;28;20279;-70
2023/04/28 03:35:36;;;;;;;4.53;3.50;;;13.00;99.90;;;;;;10514993;28;20309;-71
2023/04/28 03:40:36;;;;;;;5.90;3.20;;;13.00;99.90;;;;;;10504495;28;20327;-70
2023/04/28 03:45:37;;;;;;;4.77;3.30;;;12.90;99.90;;;;;;10526122;28;20218;-70
2023/04/28 03:50:39;;;;;;;5.13;3.77;;;12.80;99.90;;;;;;10528644;28;20280;-71
2023/04/28 03:55:40;;;;;;;5.30;3.67;;;12.90;99.90;;;;;;10511498;28;20234;-72
2023/04/28 04:00:41;;;;;;;3.67;3.27;;;12.80;99.90;;;;;;10507939;28;20249;-71
2023/04/28 04:05:41;;;;;;;4.93;3.50;;;12.80;99.90;;;;;;10511854;28;20792;-71
2023/04/28 04:10:42;;;;;;;3.37;2.90;;;12.70;99.90;;;;;;10520022;28;20849;-71
2023/04/28 04:15:43;;;;;;;3.87;3.47;;;12.70;99.90;;;;;;10516961;28;20305;-72
2023/04/28 04:20:43;;;;;;;7.63;3.90;;;12.70;99.90;;;;;;10509077;28;20230;-71
2023/04/28 04:25:44;;;;;;;6.03;3.40;;;12.70;99.90;;;;;;10501547;28;20226;-73
2023/04/28 04:30:45;;;;;;;5.30;4.33;;;12.80;99.90;;;;;;10515024;28;20234;-73
2023/04/28 04:35:46;;;;;;;5.03;4.33;;;12.90;99.90;;;;;;10524949;28;20222;-71
2023/04/28 04:40:46;;;;;;;7.73;4.40;;;12.90;99.90;;;;;;10516420;28;20266;-71
2023/04/28 04:45:47;;;;;;;5.80;4.00;;;13.00;99.90;;;;;;10505309;28;20806;-69
2023/04/28 04:50:48;;;;;;;6.27;4.40;;;13.10;99.90;;;;;;10512940;28;20306;-67
2023/04/28 04:55:49;;;;;;;5.53;5.03;;;13.10;99.90;;;;;;10522280;28;20228;-68
2023/04/28 05:00:49;;;;;;;5.83;5.10;;;13.20;99.90;;;;;;10522617;28;20262;-68
2023/04/28 05:05:50;;;;;;;9.00;5.37;;;13.30;99.90;;;;;;10521833;28;20245;-68
2023/04/28 05:10:51;;;;;;;6.67;5.33;;;13.30;99.90;;;;;;10512194;28;20306;-70
2023/04/28 05:15:51;;;;;;;9.27;5.40;;;13.30;99.90;;;;;;10498959;28;20806;-70
2023/04/28 05:20:52;;;;;;;7.63;4.63;;;13.30;99.90;;;;;;10492719;28;20231;-70
2023/04/28 05:25:53;;;;;;;6.40;4.67;;;13.30;99.90;;;;;;10516383;28;20222;-73
2023/04/28 05:30:53;;;;;;;6.83;5.30;;;13.20;99.90;;;;;;10491808;28;20656;-74
2023/04/28 05:35:54;;;;;;;6.30;5.10;;;13.20;99.90;;;;;;10497371;28;20230;-73
2023/04/28 05:40:55;;;;;;;5.90;4.40;;;13.20;99.90;;;;;;10509414;28;20273;-74
2023/04/28 05:45:55;;;;;;;5.53;4.27;;;13.20;99.90;;;;;;10494538;28;20219;-74
2023/04/28 05:50:56;;;;;;;7.30;4.60;;;13.30;99.90;;;;;;10486697;28;20218;-74
2023/04/28 05:55:57;;;;;;;6.27;4.93;;;13.30;99.90;;;;;;10491745;28;20219;-72
2023/04/28 06:00:58;;;;;;;8.33;4.73;;;13.30;99.90;;;;;;10512086;28;20226;-71
2023/04/28 06:05:58;;;;;;;6.47;5.20;;;13.30;99.90;;;;;;10501791;28;20609;-72
2023/04/28 06:11:02;;;;;;;6.47;5.10;;;13.20;99.90;;;;;;10495063;28;20642;-73
2023/04/28 06:16:03;;;;;;;9.70;5.97;;;13.00;99.90;;;;;;10514341;28;20219;-72
2023/04/28 06:21:03;;;;;;;11.33;6.63;;;12.90;99.90;;;;;;10497262;28;20736;-71
2023/04/28 06:26:04;;;;;;;8.37;6.13;;;12.80;99.90;;;;;;10502866;28;20228;-71
2023/04/28 06:31:04;;;;;;;13.40;8.20;;;12.80;99.90;;;;;;10515115;28;20226;-70
2023/04/28 06:36:05;;;;;;;8.67;7.10;;;12.80;99.90;;;;;;10498096;28;20693;-71
2023/04/28 06:41:06;;;;;;;8.43;6.87;;;12.90;99.90;;;;;;10492774;28;20254;-72
2023/04/28 06:46:07;;;;;;;8.30;6.23;;;13.00;99.90;;;;;;10501757;28;20579;-71
2023/04/28 06:51:07;;;;;;;8.67;6.50;;;13.10;99.90;;;;;;10504784;28;20222;-70
2023/04/28 06:56:08;;;;;;;7.30;6.47;;;13.20;99.90;;;;;;10504229;28;20565;-71
2023/04/28 07:01:09;;;;;;;10.97;7.50;;;13.10;99.90;;;;;;10504568;28;20245;-70
2023/04/28 07:06:10;;;;;;;9.00;7.33;;;13.20;99.90;;;;;;10501781;28;20209;-71
2023/04/28 07:11:11;;;;;;;10.63;7.50;;;13.20;99.90;;;;;;10519850;28;20222;-71
2023/04/28 07:16:11;;;;;;;8.63;7.30;;;13.30;99.90;;;;;;10490662;28;20218;-71
2023/04/28 07:21:12;;;;;;;7.93;6.93;;;13.40;99.90;;;;;;10522189;28;20252;-73
2023/04/28 07:26:15;;;;;;;7.77;6.97;;;13.30;99.90;;;;;;10527227;28;20242;-72
2023/04/28 07:31:16;;;;;;;10.67;7.57;;;13.40;99.90;;;;;;10514369;28;20273;-72
2023/04/28 07:36:16;;;;;;;9.40;7.27;;;13.60;99.90;;;;;;10503756;28;20270;-72
2023/04/28 07:41:17;;;;;;;12.07;7.60;;;13.60;99.90;;;;;;10526856;28;20245;-71
2023/04/28 07:46:18;;;;;;;8.77;7.10;;;13.90;99.90;;;;;;10510094;28;20214;-72
2023/04/28 07:51:18;;;;;;;8.97;7.10;;;14.10;99.90;;;;;;10522267;28;20237;-69
2023/04/28 07:56:20;;;;;;;9.13;7.10;;;14.10;99.90;;;;;;10504386;28;20217;-70
2023/04/28 08:01:21;;;;;;;10.20;8.17;;;14.20;99.90;;;;;;10518016;28;20238;-71
2023/04/28 08:06:22;;;;;;;11.90;8.40;;;14.20;99.90;;;;;;10502582;28;20573;-71
2023/04/28 08:11:22;;;;;;;9.13;8.23;;;14.20;99.90;;;;;;10526787;28;20234;-70
2023/04/28 08:16:23;;;;;;;10.43;8.97;;;14.30;99.90;;;;;;10512665;28;20213;-70
2023/04/28 08:21:24;;;;;;;11.93;8.40;;;14.40;99.90;;;;;;10509569;28;20246;-69
2023/04/28 08:26:25;;;;;;;8.47;7.37;;;14.40;99.90;;;;;;10517372;28;20222;-70
2023/04/28 08:31:25;;;;;;;9.80;8.37;;;14.40;99.90;;;;;;10513593;28;20214;-72
2023/04/28 08:36:30;;;;;;;8.90;8.10;;;14.40;99.90;;;;;;10502607;28;20233;-69
2023/04/28 08:41:38;;;;;;;9.90;8.90;;;14.50;99.90;;;;;;10524901;28;20234;-70
2023/04/28 08:46:43;;;;;;;10.17;9.20;;;14.60;99.90;;;;;;10501409;28;20219;-68
2023/04/28 08:51:48;;;;;;;11.37;10.27;;;14.70;99.90;;;;;;10519709;28;20238;-70
2023/04/28 08:56:50;;;;;;;10.97;9.87;;;14.70;99.90;;;;;;10517586;28;20274;-69
2023/04/28 09:01:50;;;;;;;11.37;10.20;;;14.70;99.90;;;;;;10531692;28;20220;-69
2023/04/28 09:06:54;;;;;;;11.73;10.40;;;14.70;99.90;;;;;;10522814;28;20587;-69
2023/04/28 09:11:59;;;;;;;12.33;9.90;;;14.90;99.90;;;;;;10506877;28;20222;-71
2023/04/28 09:17:18;;;;;;;13.60;12.20;;;15.20;99.90;;;;;;10515872;28;20692;-73
2023/04/28 09:22:27;;;;;;;13.30;12.00;;;15.30;99.90;;;;;;10493904;28;20238;-70
2023/04/28 09:27:28;;;;;;;13.93;11.93;;;15.60;99.90;;;;;;10510622;28;20230;-67
2023/04/28 09:32:29;;;;;;;13.57;12.17;;;15.50;99.90;;;;;;10514287;28;20223;-68
2023/04/28 09:37:30;;;;;;;14.33;12.83;;;15.50;99.90;;;;;;10517089;28;20206;-68
2023/04/28 09:42:35;;;;;;;11.80;10.60;;;15.60;99.90;;;;;;10489608;28;20708;-69
2023/04/28 09:47:44;;;;;;;12.93;11.57;;;15.50;99.90;;;;;;10525026;28;20268;-68
2023/04/28 09:52:56;;;;;;;16.17;13.10;;;15.40;99.90;;;;;;10511463;28;20350;-68
2023/04/28 09:58:01;;;;;;;12.70;11.40;;;15.40;99.90;;;;;;10510114;28;20355;-67
2023/04/28 10:03:02;;;;;;;14.30;12.70;;;15.50;99.90;;;;;;10505985;28;20785;-67
2023/04/28 10:08:03;;;;;;;15.57;12.93;;;15.60;99.90;;;;;;10507233;28;20325;-66
2023/04/28 10:13:04;;;;;;;14.37;12.97;;;15.90;99.90;;;;;;10514386;28;20296;-67
2023/04/28 10:18:05;;;;;;;11.60;10.40;;;16.20;99.90;;;;;;10508105;28;20254;-69
2023/04/28 10:23:41;;;;;;;14.17;12.90;;;16.40;99.90;;;;;;10515467;28;20241;-68
2023/04/28 10:28:49;;;;;;;12.23;10.93;;;16.60;99.90;;;;;;10515396;28;20214;-68
2023/04/28 10:33:50;;;;;;;11.63;10.53;;;16.80;99.90;;;;;;10512264;28;20230;-67
2023/04/28 10:39:11;;;;;;;11.67;10.47;;;16.90;99.90;;;;;;10516210;28;20729;-66
2023/04/28 10:44:27;;;;;;;13.03;11.80;;;16.80;99.90;;;;;;10521632;28;20232;-66
2023/04/28 10:50:00;;;;;;;12.77;11.47;;;16.70;99.90;;;;;;10506984;28;20584;-66
2023/04/28 10:55:20;;;;;;;11.13;10.03;;;16.60;99.90;;;;;;10512847;28;20616;-69
2023/04/28 11:00:29;;;;;;;12.10;10.37;;;16.90;99.90;;;;;;10503040;28;20222;-69
2023/04/28 11:05:30;;;;;;;11.30;10.20;;;17.20;99.90;;;;;;10500656;28;20218;-69
2023/04/28 11:11:08;;;;;;;13.40;12.00;;;17.40;99.90;;;;;;10511680;28;20292;-70
2023/04/28 11:16:09;;;;;;;14.30;12.80;;;17.30;99.90;;;;;;10495065;28;20294;-70
2023/04/28 11:21:10;;;;;;;11.53;10.53;;;17.20;99.90;;;;;;10505249;28;20385;-68
2023/04/28 11:26:11;;;;;;;14.73;11.87;;;17.40;99.90;;;;;;10494056;28;20611;-69
2023/04/28 11:31:13;;;;;;;11.00;9.03;;;17.80;99.90;;;;;;10496039;28;20222;-69
2023/04/28 11:36:28;;;;;;;11.53;10.40;;;18.40;99.90;;;;;;10504179;28;20223;-70
2023/04/28 11:41:29;;;;;;;10.07;9.10;;;18.40;99.90;;;;;;10522074;28;20712;-69
2023/04/28 11:46:30;;;;;;;12.27;10.97;;;18.00;99.90;;;;;;10493878;28;20304;-69
2023/04/28 11:51:37;;;;;;;12.23;11.23;;;17.50;99.90;;;;;;10491319;28;20677;-69
2023/04/28 11:56:39;;;;;;;12.60;11.33;;;17.30;99.90;;;;;;10508766;28;20233;-70
2023/04/28 12:01:46;;;;;;;12.20;11.00;;;17.10;99.90;;;;;;10516368;28;20241;-69
2023/04/28 12:07:09;;;;;;;12.23;10.83;;;16.90;99.90;;;;;;10515068;28;20287;-69
2023/04/28 12:12:13;;;;;;;10.20;9.30;;;16.60;99.90;;;;;;10495555;28;20232;-70
2023/04/28 12:17:44;;;;;;;9.80;8.83;;;16.60;99.90;;;;;;10517688;28;20286;-69
2023/04/28 12:22:49;;;;;;;8.23;7.40;;;16.70;99.90;;;;;;10511994;28;20226;-69
2023/04/28 12:28:04;;;;;;;9.17;8.30;;;17.30;99.90;;;;;;10518749;28;20238;-73
2023/04/28 12:33:05;;;;;;;10.40;7.57;;;17.80;99.90;;;;;;10516385;28;20233;-71
2023/04/28 12:38:10;;;;;;;7.63;7.03;;;18.30;99.90;;;;;;10508749;28;20227;-73
2023/04/28 12:43:11;;;;;;;7.67;6.80;;;19.10;99.90;;;;;;10515504;28;20239;-74
2023/04/28 12:48:11;;;;;;;7.10;6.40;;;19.30;99.90;;;;;;10482717;28;20228;-72
2023/04/28 12:53:12;;;;;;;6.40;5.90;;;20.10;99.90;;;;;;10495135;28;20298;-74
2023/04/28 12:58:12;;;;;;;6.33;4.93;;;20.20;99.90;;;;;;10525087;28;20257;-75
2023/04/28 13:03:14;;;;;;;5.07;4.67;;;20.30;99.90;;;;;;10503615;28;20266;-72
2023/04/28 13:08:15;;;;;;;7.17;4.43;;;19.90;99.90;;;;;;10490046;28;20220;-73
2023/04/28 13:13:15;;;;;;;4.93;4.50;;;19.70;99.90;;;;;;10481255;28;20247;-73
2023/04/28 13:18:16;;;;;;;4.00;3.60;;;19.90;99.90;;;;;;10501883;28;20602;-71
2023/04/28 13:23:16;;;;;;;3.80;2.80;;;20.10;99.90;;;;;;10483942;28;20234;-71
2023/04/28 13:28:18;;;;;;;3.43;2.63;;;20.50;99.90;;;;;;10506508;28;20258;-73
2023/04/28 13:33:18;;;;;;;3.80;2.63;;;20.40;99.90;;;;;;10507696;28;20633;-73
2023/04/28 13:38:20;;;;;;;4.80;3.40;;;20.10;99.90;;;;;;10516778;28;20275;-73
2023/04/28 13:43:21;;;;;;;3.47;3.23;;;20.00;99.90;;;;;;10491267;28;20616;-74
2023/04/28 13:48:21;;;;;;;4.33;2.60;;;20.10;99.90;;;;;;10522982;28;20222;-74
2023/04/28 13:53:22;;;;;;;3.43;2.90;;;20.10;99.90;;;;;;10523833;28;20222;-73
2023/04/28 13:58:24;;;;;;;3.83;3.50;;;20.30;99.90;;;;;;10517165;28;20835;-73
2023/04/28 14:03:25;;;;;;;4.37;3.97;;;20.60;99.90;;;;;;10517310;28;20237;-74
2023/04/28 14:08:26;;;;;;;3.90;3.60;;;20.30;99.90;;;;;;10518410;28;20305;-74
2023/04/28 14:13:28;;;;;;;4.30;2.93;;;20.00;99.90;;;;;;10529617;28;20214;-74
2023/04/28 14:18:29;;;;;;;2.60;2.40;;;20.30;99.90;;;;;;10494938;28;20338;-72
2023/04/28 14:23:29;;;;;;;3.17;2.40;;;20.50;99.90;;;;;;10531338;28;20302;-71
2023/04/28 14:28:30;;;;;;;5.10;3.30;;;20.40;99.90;;;;;;10504395;28;20657;-72
2023/04/28 14:33:32;;;;;;;2.47;2.23;;;20.00;99.90;;;;;;10522149;28;20219;-72
2023/04/28 14:38:36;;;;;;;2.90;2.20;;;19.90;99.90;;;;;;10511572;28;20219;-71
2023/04/28 14:43:37;;;;;;;2.20;1.90;;;19.90;99.90;;;;;;10514163;28;20207;-72
2023/04/28 14:48:37;;;;;;;1.93;1.77;;;19.80;99.90;;;;;;10502836;28;20222;-71
2023/04/28 14:53:38;;;;;;;2.67;1.60;;;20.00;99.90;;;;;;10510165;28;20324;-70
2023/04/28 14:58:38;;;;;;;1.20;1.00;;;20.10;99.90;;;;;;10513926;28;20642;-70
2023/04/28 15:03:39;;;;;;;3.60;1.10;;;20.10;99.90;;;;;;10505136;28;20215;-71
2023/04/28 15:08:40;;;;;;;3.03;1.30;;;20.00;99.90;;;;;;10496938;28;20858;-71
2023/04/28 15:13:40;;;;;;;1.30;1.10;;;20.10;99.90;;;;;;10503599;28;20285;-71
2023/04/28 15:18:42;;;;;;;2.10;1.40;;;20.10;99.90;;;;;;10521269;28;20261;-71
2023/04/28 15:23:43;;;;;;;1.73;1.10;;;20.00;99.90;;;;;;10508923;28;20246;-72
2023/04/28 15:28:47;;;;;;;0.90;0.90;;;20.10;99.90;;;;;;10524574;28;20777;-72
2023/04/28 15:33:48;;;;;;;1.70;0.90;;;20.30;99.90;;;;;;10491657;28;20221;-70
2023/04/28 15:38:50;;;;;;;1.70;1.27;;;20.20;99.90;;;;;;10489625;28;20223;-71
2023/04/28 15:43:51;;;;;;;1.20;1.10;;;20.00;99.90;;;;;;10492284;28;20211;-71
2023/04/28 15:48:51;;;;;;;2.60;1.10;;;19.60;99.90;;;;;;10508305;28;20223;-71
2023/04/28 15:53:54;;;;;;;1.70;1.13;;;19.20;99.90;;;;;;10510669;28;20228;-72
2023/04/28 15:58:55;;;;;;;1.60;0.97;;;18.80;99.90;;;;;;10507058;28;20223;-73
2023/04/28 16:03:55;;;;;;;2.57;1.10;;;18.70;99.90;;;;;;10513697;28;20292;-71
2023/04/28 16:08:56;;;;;;;1.33;0.80;;;18.80;99.90;;;;;;10502451;28;20716;-71
2023/04/28 16:13:57;;;;;;;1.57;1.03;;;19.00;99.90;;;;;;10499925;28;20238;-71
2023/04/28 16:18:57;;;;;;;2.87;0.80;;;19.00;99.90;;;;;;10505852;28;20254;-71
2023/04/28 16:23:58;;;;;;;2.23;0.90;;;18.90;99.90;;;;;;10498100;28;20309;-72
2023/04/28 16:28:58;;;;;;;1.83;1.10;;;18.80;99.90;;;;;;10488066;28;20213;-71
2023/04/28 16:33:59;;;;;;;1.00;0.90;;;18.70;99.90;;;;;;10487482;28;20233;-72
2023/04/28 16:39:00;;;;;;;0.87;0.70;;;18.60;99.90;;;;;;10503387;28;20222;-70
2023/04/28 16:44:00;;;;;;;0.83;0.60;;;18.50;99.90;;;;;;10526730;28;20221;-71
2023/04/28 16:49:01;;;;;;;2.13;1.17;;;18.30;99.90;;;;;;10493254;28;20774;-72
2023/04/28 16:54:02;;;;;;;2.20;0.90;;;18.20;99.90;;;;;;10493197;28;20226;-71
2023/04/28 16:59:02;;;;;;;0.60;0.60;;;18.10;99.90;;;;;;10499328;28;20244;-70
2023/04/28 17:04:05;;;;;;;1.00;0.80;;;17.90;99.90;;;;;;10543067;28;20702;-71
2023/04/28 17:09:09;;;;;;;2.57;1.53;;;17.70;99.90;;;;;;10500180;28;20716;-71
2023/04/28 17:14:09;;;;;;;4.40;1.90;;;17.60;99.90;;;;;;10495808;28;20214;-71
2023/04/28 17:19:13;;;;;;;3.43;1.90;;;17.40;99.90;;;;;;10526835;28;20265;-71
2023/04/28 17:24:14;;;;;;;2.67;1.47;;;17.20;99.90;;;;;;10510469;28;20229;-71
2023/04/28 17:29:17;;;;;;;4.00;1.10;;;17.00;99.90;;;;;;10525448;28;20228;-71
2023/04/28 17:34:21;;;;;;;2.47;1.03;;;17.00;99.90;;;;;;10498907;28;20607;-72
2023/04/28 17:39:21;;;;;;;1.70;0.83;;;17.20;99.90;;;;;;10510197;28;20275;-70
2023/04/28 17:44:22;;;;;;;0.67;0.60;;;17.20;99.90;;;;;;10508800;28;20625;-70
2023/04/28 17:49:23;;;;;;;2.50;0.83;;;17.00;99.90;;;;;;10497333;28;20232;-71
2023/04/28 17:54:23;;;;;;;5.00;1.30;;;17.00;99.90;;;;;;10525088;28;20231;-70
2023/04/28 17:59:24;;;;;;;2.80;1.67;;;16.70;99.90;;;;;;10507659;28;20737;-70
2023/04/28 18:04:25;;;;;;;3.13;2.00;;;16.40;99.90;;;;;;10514689;28;20300;-71
2023/04/28 18:09:29;;;;;;;2.70;1.77;;;16.10;99.90;;;;;;10537716;28;20220;-72
2023/04/28 18:14:30;;;;;;;4.17;1.20;;;15.90;99.90;;;;;;10510274;28;20696;-72
2023/04/28 18:19:31;;;;;;;4.73;1.10;;;15.70;99.90;;;;;;10500039;28;20308;-71
2023/04/28 18:24:32;;;;;;;1.20;1.10;;;15.50;99.90;;;;;;10524924;28;20297;-71
2023/04/28 18:29:32;;;;;;;2.67;1.33;;;15.50;99.90;;;;;;10493738;28;20224;-69
2023/04/28 18:34:33;;;;;;;1.80;1.37;;;15.50;99.90;;;;;;10519623;28;20222;-71
2023/04/28 18:39:34;;;;;;;2.50;1.23;;;15.50;99.90;;;;;;10501333;28;20226;-71
2023/04/28 18:44:34;;;;;;;2.60;1.80;;;15.50;99.90;;;;;;10501223;28;20212;-71
2023/04/28 18:49:36;;;;;;;3.90;1.63;;;15.50;99.90;;;;;;10509799;28;20224;-71
2023/04/28 18:54:37;;;;;;;3.77;1.57;;;15.40;99.90;;;;;;10514641;28;20920;-71
2023/04/28 18:59:38;;;;;;;1.83;1.17;;;15.40;99.90;;;;;;10510439;28;20224;-73
2023/04/28 19:04:40;;;;;;;2.17;1.23;;;15.40;99.90;;;;;;10493542;28;20293;-71
2023/04/28 19:09:41;;;;;;;3.23;1.77;;;15.40;99.90;;;;;;10514645;28;20444;-71
2023/04/28 19:14:42;;;;;;;1.50;1.13;;;15.30;99.90;;;;;;10492130;28;20805;-71
2023/04/28 19:19:43;;;;;;;2.23;0.90;;;15.20;99.90;;;;;;10495538;28;20664;-74
2023/04/28 19:24:43;;;;;;;1.73;1.20;;;15.20;99.90;;;;;;10500249;28;20213;-70
2023/04/28 19:29:44;;;;;;;3.23;1.40;;;15.20;99.90;;;;;;10496311;28;20220;-71
2023/04/28 19:34:45;;;;;;;2.70;1.60;;;15.10;99.90;;;;;;10491598;28;20774;-71
2023/04/28 19:39:46;;;;;;;3.33;2.07;;;15.00;99.90;;;;;;10491735;28;20217;-72
2023/04/28 19:44:52;;;;;;;2.70;1.80;;;14.80;99.90;;;;;;10508905;28;20218;-71
2023/04/28 19:49:53;;;;;;;2.17;1.57;;;14.70;99.90;;;;;;10492453;28;20301;-72
2023/04/28 19:54:54;;;;;;;2.87;2.13;;;14.60;99.90;;;;;;10523139;28;20249;-71
2023/04/28 19:59:55;;;;;;;3.33;1.80;;;14.60;99.90;;;;;;10493655;28;20225;-73
2023/04/28 20:04:55;;;;;;;2.60;1.67;;;14.60;99.90;;;;;;10505804;28;20211;-71
2023/04/28 20:10:00;;;;;;;2.10;1.37;;;14.60;99.90;;;;;;10526091;28;20590;-72
2023/04/28 20:15:00;;;;;;;4.27;1.47;;;14.60;99.90;;;;;;10508423;28;20304;-71
2023/04/28 20:20:05;;;;;;;2.60;1.33;;;14.60;99.90;;;;;;10499376;28;20614;-71
2023/04/28 20:25:08;;;;;;;2.47;1.33;;;14.60;99.90;;;;;;10507982;28;20210;-72
2023/04/28 20:30:09;;;;;;;2.67;1.60;;;14.60;99.90;;;;;;10501131;28;20183;-71
2023/04/28 20:35:10;;;;;;;5.47;1.77;;;14.40;99.90;;;;;;10502732;28;20214;-72
2023/04/28 20:40:12;;;;;;;3.97;1.70;;;14.40;99.90;;;;;;10511117;28;20261;-72
2023/04/28 20:45:15;;;;;;;6.73;2.10;;;14.30;99.90;;;;;;10506076;28;20193;-70
2023/04/28 20:50:18;;;;;;;5.07;2.10;;;14.20;99.90;;;;;;10501924;28;20691;-71
2023/04/28 20:55:19;;;;;;;4.10;2.00;;;14.10;99.90;;;;;;10498911;28;20650;-71
2023/04/28 21:00:20;;;;;;;5.33;2.63;;;13.90;99.90;;;;;;10533448;28;20213;-71
2023/04/28 21:05:22;;;;;;;5.03;3.03;;;13.90;99.90;;;;;;10494011;28;20185;-71
2023/04/28 21:10:23;;;;;;;4.67;2.43;;;13.90;99.90;;;;;;10494067;28;20189;-70
2023/04/28 21:15:24;;;;;;;4.03;2.27;;;14.00;99.90;;;;;;10499179;28;20243;-71
2023/04/28 21:20:25;;;;;;;6.20;2.40;;;14.00;99.90;;;;;;10495737;28;20230;-71
2023/04/28 21:25:26;;;;;;;4.90;2.90;;;13.90;99.90;;;;;;10496039;28;20731;-72
2023/04/28 21:30:27;;;;;;;6.37;3.20;;;13.90;99.90;;;;;;10531548;28;20222;-71
2023/04/28 21:35:28;;;;;;;6.23;3.17;;;13.70;99.90;;;;;;10492268;28;20268;-72
2023/04/28 21:40:28;;;;;;;5.80;3.70;;;13.60;99.90;;;;;;10497366;28;20313;-71
2023/04/28 21:45:29;;;;;;;3.50;3.20;;;13.50;99.90;;;;;;10493348;28;20219;-71
2023/04/28 21:50:29;;;;;;;5.63;3.73;;;13.40;99.90;;;;;;10496644;28;20214;-72
2023/04/28 21:55:30;;;;;;;9.73;4.70;;;13.40;99.90;;;;;;10492601;28;20239;-72
2023/04/28 22:00:37;;;;;;;10.43;6.40;;;13.40;99.90;;;;;;10498357;28;20214;-71
2023/04/28 22:05:42;;;;;;;13.07;7.03;;;13.30;99.90;;;;;;10521490;28;20219;-70
2023/04/28 22:10:44;;;;;;;8.23;6.50;;;13.30;99.90;;;;;;10498163;28;20251;-72
2023/04/28 22:15:45;;;;;;;9.83;8.40;;;13.20;99.90;;;;;;10511396;28;20213;-72
2023/04/28 22:20:46;;;;;;;11.63;8.07;;;13.10;99.90;;;;;;10507286;28;20236;-71
2023/04/28 22:25:46;;;;;;;9.50;8.27;;;13.00;99.90;;;;;;10518718;28;20219;-69
2023/04/28 22:30:47;;;;;;;11.33;8.03;;;12.90;99.90;;;;;;10515675;28;20279;-70
2023/04/28 22:35:48;;;;;;;10.07;7.63;;;12.90;99.90;;;;;;10501129;28;20403;-72
2023/04/28 22:40:48;;;;;;;10.60;8.20;;;12.80;99.90;;;;;;10509723;28;20234;-71
2023/04/28 22:45:49;;;;;;;9.20;7.77;;;12.80;99.90;;;;;;10493155;28;20238;-71
2023/04/28 22:50:50;;;;;;;8.23;7.30;;;12.70;99.90;;;;;;10524222;28;20571;-70
2023/04/28 22:55:50;;;;;;;11.67;7.20;;;12.70;99.90;;;;;;10496507;28;20223;-72
2023/04/28 23:00:51;;;;;;;7.87;6.07;;;12.80;99.90;;;;;;10517452;28;20230;-71
2023/04/28 23:05:52;;;;;;;7.87;6.53;;;12.90;99.90;;;;;;10490764;28;20215;-72
2023/04/28 23:10:55;;;;;;;6.80;6.20;;;12.90;99.90;;;;;;10510663;28;20225;-70
2023/04/28 23:15:59;;;;;;;8.30;6.57;;;12.90;99.90;;;;;;10490045;28;20221;-71
2023/04/28 23:21:00;;;;;;;7.23;6.30;;;12.90;99.90;;;;;;10511915;28;20736;-71
2023/04/28 23:26:01;;;;;;;7.60;6.53;;;12.90;99.90;;;;;;10506897;28;20239;-71
2023/04/28 23:31:04;;;;;;;7.23;6.53;;;12.90;99.90;;;;;;10518001;28;20640;-71
2023/04/28 23:36:05;;;;;;;6.73;6.00;;;12.90;99.90;;;;;;10513872;28;20253;-71
2023/04/28 23:41:07;;;;;;;8.43;6.60;;;12.80;99.90;;;;;;10488733;28;20653;-72
2023/04/28 23:46:08;;;;;;;10.07;6.83;;;12.70;99.90;;;;;;10512900;28;20287;-72
2023/04/28 23:51:09;;;;;;;6.70;6.00;;;12.60;99.90;;;;;;10506677;28;20229;-71
2023/04/28 23:56:10;;;;;;;7.10;6.37;;;12.60;99.90;;;;;;10513108;28;20586;-70
